Time;durP1;ratioP1;P1;durP2;ratioP2;P2;SDS_P1;SDS_P2;PMS_P1;PMS_P2;Temp;Humidity;BMP_temperature;BMP_pressure;BME280_temperature;BME280_humidity;BME280_pressure;Samples;Min_cycle;Max_cycle;Signal;HPM_P1;HPM_P2
2022/03/04 00:02:20;;;;;;;89.93;38.70;;;5.60;99.90;;;;;;4974503;28;20062;-81
2022/03/04 00:04:47;;;;;;;93.70;37.83;;;5.60;99.90;;;;;;4974556;28;20019;-81
2022/03/04 00:07:20;;;;;;;85.60;37.13;;;5.60;99.90;;;;;;4974312;28;20113;-81
2022/03/04 00:09:47;;;;;;;88.53;36.50;;;5.60;99.90;;;;;;4974231;28;20039;-81
2022/03/04 00:12:17;;;;;;;80.38;36.03;;;5.50;99.90;;;;;;4958192;28;20034;-81
2022/03/04 00:14:44;;;;;;;95.53;38.08;;;5.50;99.90;;;;;;4974358;28;20488;-81
2022/03/04 00:17:10;;;;;;;84.90;37.83;;;5.50;99.90;;;;;;4958069;28;20052;-81
2022/03/04 00:19:37;;;;;;;98.22;40.42;;;5.50;99.90;;;;;;4958149;28;20034;-81
2022/03/04 00:22:05;;;;;;;94.28;40.67;;;5.60;99.90;;;;;;4958379;28;20473;-81
2022/03/04 00:24:32;;;;;;;94.38;40.15;;;5.60;99.90;;;;;;4974063;28;20062;-81
2022/03/04 00:26:58;;;;;;;89.28;41.55;;;5.60;99.90;;;;;;4957771;28;20123;-81
2022/03/04 00:29:25;;;;;;;84.63;38.72;;;5.60;99.90;;;;;;4973873;28;20051;-81
2022/03/04 00:31:54;;;;;;;90.82;39.72;;;5.50;99.90;;;;;;4973998;28;20031;-81
2022/03/04 00:34:21;;;;;;;82.90;36.67;;;5.50;99.90;;;;;;4957764;28;20432;-81
2022/03/04 00:36:49;;;;;;;92.47;37.15;;;5.50;99.90;;;;;;4957740;28;20546;-81
2022/03/04 00:39:16;;;;;;;83.95;37.70;;;5.50;99.90;;;;;;4973780;28;20082;-81
2022/03/04 00:41:44;;;;;;;88.78;38.38;;;5.50;99.90;;;;;;4975059;28;20029;-81
2022/03/04 00:44:11;;;;;;;71.97;33.88;;;5.50;99.90;;;;;;4957816;28;20416;-81
2022/03/04 00:46:38;;;;;;;79.60;34.83;;;5.50;99.90;;;;;;4973873;28;20488;-81
2022/03/04 00:49:05;;;;;;;71.97;33.03;;;5.40;99.90;;;;;;4974847;28;20022;-81
2022/03/04 00:51:32;;;;;;;73.15;30.92;;;5.40;99.90;;;;;;4957618;28;20105;-81
2022/03/04 00:53:58;;;;;;;69.47;30.45;;;5.40;99.90;;;;;;4973732;28;20031;-81
2022/03/04 00:56:25;;;;;;;66.85;30.42;;;5.40;99.90;;;;;;4957551;28;20085;-81
2022/03/04 00:58:53;;;;;;;73.30;29.33;;;5.40;99.90;;;;;;4973541;28;20038;-81
2022/03/04 01:01:19;;;;;;;67.57;29.02;;;5.40;99.90;;;;;;4973491;28;20023;-81
2022/03/04 01:03:47;;;;;;;63.95;28.77;;;5.40;99.90;;;;;;4973567;28;20055;-81
2022/03/04 01:06:13;;;;;;;66.93;27.75;;;5.40;99.90;;;;;;4957400;28;20039;-81
2022/03/04 01:08:40;;;;;;;72.90;30.95;;;5.40;99.90;;;;;;4973828;28;20102;-81
2022/03/04 01:11:06;;;;;;;67.28;29.50;;;5.30;99.90;;;;;;4957217;28;20085;-81
2022/03/04 01:13:33;;;;;;;74.05;31.00;;;5.30;99.90;;;;;;4957386;28;20031;-81
2022/03/04 01:16:01;;;;;;;66.55;28.92;;;5.30;99.90;;;;;;4974920;28;20435;-81
2022/03/04 01:18:28;;;;;;;60.10;29.30;;;5.30;99.90;;;;;;4973737;28;20023;-81
2022/03/04 01:20:54;;;;;;;65.60;29.38;;;5.40;99.90;;;;;;4974640;28;20061;-81
2022/03/04 01:23:21;;;;;;;68.88;29.98;;;5.30;99.90;;;;;;4974860;28;20023;-81
2022/03/04 01:25:52;;;;;;;76.32;30.40;;;5.30;99.90;;;;;;4973325;28;20030;-81
2022/03/04 01:28:21;;;;;;;62.30;28.52;;;5.40;99.90;;;;;;4973034;28;20051;-81
2022/03/04 01:30:48;;;;;;;50.40;26.05;;;5.40;99.90;;;;;;4973088;28;20488;-81
2022/03/04 01:33:15;;;;;;;47.78;22.65;;;5.40;99.90;;;;;;4973161;28;20086;-81
2022/03/04 01:35:42;;;;;;;45.83;18.80;;;5.40;99.90;;;;;;4974508;28;20055;-81
2022/03/04 01:38:09;;;;;;;36.00;15.82;;;5.40;99.90;;;;;;4957070;28;20396;-81
2022/03/04 01:40:36;;;;;;;44.28;18.40;;;5.50;99.90;;;;;;4957046;28;20035;-81
2022/03/04 01:43:03;;;;;;;45.92;18.83;;;5.60;99.90;;;;;;4957153;28;20109;-81
2022/03/04 01:45:31;;;;;;;42.50;17.92;;;5.50;99.90;;;;;;4973233;28;20077;-81
2022/03/04 01:47:58;;;;;;;43.75;19.17;;;5.60;99.90;;;;;;4977456;28;20472;-81
2022/03/04 01:50:26;;;;;;;44.55;20.52;;;5.60;99.90;;;;;;4978289;28;20045;-81
2022/03/04 01:52:53;;;;;;;40.08;19.27;;;5.70;99.90;;;;;;4978146;28;20114;-81
2022/03/04 01:55:20;;;;;;;45.22;18.52;;;5.70;99.90;;;;;;4960761;28;20440;-81
2022/03/04 01:57:47;;;;;;;44.80;18.05;;;5.70;99.90;;;;;;4976893;28;20106;-81
2022/03/04 02:00:15;;;;;;;47.13;19.20;;;5.70;99.90;;;;;;4977895;28;20042;-81
2022/03/04 02:02:45;;;;;;;37.97;17.40;;;5.70;99.90;;;;;;4976685;28;20023;-81
2022/03/04 02:05:14;;;;;;;36.50;15.32;;;5.70;99.90;;;;;;4976557;28;20042;-81
2022/03/04 02:07:41;;;;;;;27.85;13.25;;;5.70;99.90;;;;;;4976677;28;20023;-81
2022/03/04 02:10:10;;;;;;;31.73;12.77;;;5.80;99.90;;;;;;4960434;28;20039;-81
2022/03/04 02:12:38;;;;;;;30.23;13.32;;;5.80;99.90;;;;;;4976499;28;20062;-81
2022/03/04 02:15:06;;;;;;;26.48;11.75;;;5.90;99.90;;;;;;4960312;28;20027;-81
2022/03/04 02:17:32;;;;;;;22.88;10.80;;;5.90;99.90;;;;;;4976403;28;20395;-81
2022/03/04 02:20:00;;;;;;;20.88;9.77;;;5.90;99.90;;;;;;4976348;28;20110;-81
2022/03/04 02:22:27;;;;;;;23.83;9.57;;;5.90;99.90;;;;;;4960209;28;20117;-81
2022/03/04 02:24:54;;;;;;;20.38;9.27;;;5.80;99.90;;;;;;4992404;28;20109;-81
2022/03/04 02:27:21;;;;;;;15.55;8.00;;;5.80;99.90;;;;;;4959853;28;20397;-81
2022/03/04 02:29:48;;;;;;;19.10;9.63;;;5.80;99.90;;;;;;4976168;28;20066;-81
2022/03/04 02:32:15;;;;;;;25.85;9.57;;;5.80;99.90;;;;;;4976209;28;20105;-81
2022/03/04 02:34:43;;;;;;;24.50;9.15;;;5.80;99.90;;;;;;4975952;28;20030;-81
2022/03/04 02:37:11;;;;;;;25.52;10.20;;;5.80;99.90;;;;;;4977352;28;20030;-81
2022/03/04 02:39:37;;;;;;;18.65;8.70;;;5.80;99.90;;;;;;4975999;28;20097;-81
2022/03/04 02:42:05;;;;;;;23.38;10.05;;;5.80;99.90;;;;;;4959886;28;20027;-81
2022/03/04 02:44:35;;;;;;;23.35;9.63;;;5.80;99.90;;;;;;4975929;28;20022;-81
2022/03/04 02:47:03;;;;;;;15.65;7.88;;;5.80;99.90;;;;;;4975855;28;20393;-81
2022/03/04 02:49:32;;;;;;;21.35;9.18;;;5.80;99.90;;;;;;4975850;28;20084;-81
2022/03/04 02:51:59;;;;;;;17.92;9.10;;;5.80;99.90;;;;;;4975806;28;20068;-81
2022/03/04 02:54:28;;;;;;;20.83;8.95;;;5.80;99.90;;;;;;4959640;28;20120;-81
2022/03/04 02:56:55;;;;;;;18.52;8.63;;;5.80;99.90;;;;;;4975669;28;20031;-81
2022/03/04 02:59:22;;;;;;;18.88;8.20;;;5.80;99.90;;;;;;4975633;28;20465;-81
2022/03/04 03:01:50;;;;;;;21.35;9.50;;;5.80;99.90;;;;;;4959694;28;20030;-81
2022/03/04 03:04:18;;;;;;;16.45;8.35;;;5.70;99.90;;;;;;4959428;28;20410;-81
2022/03/04 03:06:47;;;;;;;19.20;8.57;;;5.70;99.90;;;;;;5008176;28;20019;-81
2022/03/04 03:09:13;;;;;;;26.15;9.38;;;5.70;99.90;;;;;;4975361;28;20098;-81
2022/03/04 03:11:41;;;;;;;17.90;8.40;;;5.70;99.90;;;;;;4991486;28;20043;-81
2022/03/04 03:14:08;;;;;;;18.05;8.23;;;5.70;99.90;;;;;;4959358;28;20033;-81
2022/03/04 03:16:35;;;;;;;19.35;9.13;;;5.70;99.90;;;;;;4975311;28;20134;-81
2022/03/04 03:19:02;;;;;;;19.17;9.05;;;5.70;99.90;;;;;;4959227;28;20053;-81
2022/03/04 03:21:29;;;;;;;17.02;8.00;;;5.70;99.90;;;;;;4975112;28;20034;-81
2022/03/04 03:23:56;;;;;;;23.42;8.20;;;5.60;99.90;;;;;;4959054;28;20039;-81
2022/03/04 03:26:23;;;;;;;18.45;8.25;;;5.70;99.90;;;;;;4975183;28;20026;-81
2022/03/04 03:28:51;;;;;;;19.33;9.57;;;5.70;99.90;;;;;;4974969;28;20416;-81
2022/03/04 03:31:18;;;;;;;18.92;8.50;;;5.60;99.90;;;;;;4975034;28;20039;-81
2022/03/04 03:33:47;;;;;;;19.35;8.88;;;5.60;99.90;;;;;;4975388;28;20085;-81
2022/03/04 03:36:13;;;;;;;16.23;8.07;;;5.60;99.90;;;;;;4975025;28;20023;-81
2022/03/04 03:38:40;;;;;;;20.10;8.10;;;5.60;99.90;;;;;;4958912;28;20027;-81
2022/03/04 03:41:06;;;;;;;20.30;8.27;;;5.60;99.90;;;;;;4974886;28;20565;-81
2022/03/04 03:43:33;;;;;;;23.65;9.10;;;5.60;99.90;;;;;;4974885;28;20053;-81
2022/03/04 03:46:00;;;;;;;23.75;9.15;;;5.60;99.90;;;;;;4974777;28;20038;-81
2022/03/04 03:48:28;;;;;;;18.55;7.93;;;5.60;99.90;;;;;;4974715;28;20037;-81
2022/03/04 03:50:57;;;;;;;28.65;8.93;;;5.70;99.90;;;;;;4974591;28;20381;-81
2022/03/04 03:53:24;;;;;;;22.13;8.60;;;5.70;99.90;;;;;;4974673;28;20078;-81
2022/03/04 03:55:51;;;;;;;19.33;8.43;;;5.70;99.90;;;;;;4976066;28;20110;-81
2022/03/04 03:58:19;;;;;;;22.90;9.55;;;5.70;99.90;;;;;;4975834;28;20023;-81
2022/03/04 04:00:46;;;;;;;22.27;8.80;;;5.60;99.90;;;;;;4974599;28;20038;-81
2022/03/04 04:03:15;;;;;;;21.83;10.10;;;5.60;99.90;;;;;;4974543;28;20023;-81
2022/03/04 04:05:42;;;;;;;23.17;10.00;;;5.60;99.90;;;;;;4975697;28;20026;-81
2022/03/04 04:08:09;;;;;;;18.45;9.00;;;5.70;99.90;;;;;;4975930;28;20476;-81
2022/03/04 04:10:36;;;;;;;26.98;9.98;;;5.70;99.90;;;;;;4957587;28;20045;-81
2022/03/04 04:13:04;;;;;;;20.80;9.40;;;5.70;99.90;;;;;;4974389;28;20061;-81
2022/03/04 04:15:31;;;;;;;20.38;10.25;;;5.60;99.90;;;;;;4958204;28;20440;-81
2022/03/04 04:17:58;;;;;;;22.08;9.75;;;5.60;99.90;;;;;;4974209;28;20038;-81
2022/03/04 04:20:26;;;;;;;23.25;10.18;;;5.50;99.90;;;;;;4990362;28;20023;-81
2022/03/04 04:22:53;;;;;;;22.05;10.00;;;5.50;99.90;;;;;;4974692;28;20510;-81
2022/03/04 04:25:20;;;;;;;24.52;10.70;;;5.50;99.90;;;;;;4974141;28;20034;-81
2022/03/04 04:27:47;;;;;;;21.05;9.57;;;5.40;99.90;;;;;;4957651;28;20050;-81
2022/03/04 04:30:14;;;;;;;19.50;9.55;;;5.40;99.90;;;;;;4957844;28;20043;-81
2022/03/04 04:32:41;;;;;;;19.35;10.35;;;5.50;99.90;;;;;;4957902;28;20029;-81
2022/03/04 04:35:09;;;;;;;24.80;11.85;;;5.50;99.90;;;;;;4973915;28;20460;-81
2022/03/04 04:37:36;;;;;;;23.30;9.40;;;5.50;99.90;;;;;;4973893;28;20378;-81
2022/03/04 04:40:04;;;;;;;19.80;9.88;;;5.40;99.90;;;;;;4975122;28;20109;-81
2022/03/04 04:42:31;;;;;;;19.88;9.63;;;5.50;99.90;;;;;;4975286;28;20081;-81
2022/03/04 04:45:03;;;;;;;22.08;9.13;;;5.50;99.90;;;;;;4973836;28;20035;-80
2022/03/04 04:47:32;;;;;;;20.70;9.88;;;5.50;99.90;;;;;;4975230;28;20054;-81
2022/03/04 04:49:58;;;;;;;21.90;9.32;;;5.50;99.90;;;;;;4973577;28;20043;-81
2022/03/04 04:52:26;;;;;;;24.88;10.90;;;5.40;99.90;;;;;;4973759;28;20142;-81
2022/03/04 04:54:53;;;;;;;22.75;10.45;;;5.40;99.90;;;;;;4973729;28;20034;-81
2022/03/04 04:57:20;;;;;;;26.60;10.30;;;5.40;99.90;;;;;;4957666;28;20038;-81
2022/03/04 04:59:49;;;;;;;23.45;11.20;;;5.30;99.90;;;;;;4974766;28;20057;-81
2022/03/04 05:02:16;;;;;;;29.60;10.35;;;5.30;99.90;;;;;;4973571;28;20026;-81
2022/03/04 05:04:43;;;;;;;25.77;11.50;;;5.30;99.90;;;;;;4957438;28;20035;-81
2022/03/04 05:07:09;;;;;;;25.08;11.52;;;5.30;99.90;;;;;;4973619;28;20027;-81
2022/03/04 05:09:36;;;;;;;27.48;12.82;;;5.30;99.90;;;;;;4957464;28;20027;-81
2022/03/04 05:12:04;;;;;;;30.15;11.95;;;5.20;99.90;;;;;;4973550;28;20396;-82
2022/03/04 05:14:31;;;;;;;24.95;11.73;;;5.30;99.90;;;;;;4973436;28;20416;-81
2022/03/04 05:16:57;;;;;;;28.65;11.75;;;5.30;99.90;;;;;;4974661;28;20527;-81
2022/03/04 05:19:24;;;;;;;28.23;12.77;;;5.30;99.90;;;;;;4974601;28;20030;-82
2022/03/04 05:21:51;;;;;;;31.00;11.63;;;5.30;99.90;;;;;;4958691;28;20027;-81
2022/03/04 05:24:18;;;;;;;31.42;12.85;;;5.30;99.90;;;;;;4977393;28;20058;-81
2022/03/04 05:26:45;;;;;;;33.20;11.98;;;5.30;99.90;;;;;;4962991;28;20019;-81
2022/03/04 05:29:13;;;;;;;27.73;12.82;;;5.30;99.90;;;;;;4996652;28;20044;-82
2022/03/04 05:31:42;;;;;;;28.98;12.18;;;5.30;99.90;;;;;;5012924;28;20062;-81
2022/03/04 05:34:10;;;;;;;27.40;12.07;;;5.30;99.90;;;;;;4980634;28;20034;-82
2022/03/04 05:36:40;;;;;;;33.35;13.20;;;5.30;99.90;;;;;;4964322;28;20032;-81
2022/03/04 05:39:07;;;;;;;28.38;12.40;;;5.30;99.90;;;;;;4980244;28;20035;-81
2022/03/04 05:41:34;;;;;;;27.55;13.68;;;5.30;99.90;;;;;;4964215;28;20058;-82
2022/03/04 05:44:03;;;;;;;28.23;12.35;;;5.40;99.90;;;;;;4980395;28;20077;-81
2022/03/04 05:46:32;;;;;;;27.08;12.68;;;5.40;99.90;;;;;;4964128;28;20081;-82
2022/03/04 05:49:00;;;;;;;29.00;12.63;;;5.40;99.90;;;;;;4980152;28;20092;-82
2022/03/04 05:51:27;;;;;;;24.17;11.27;;;5.40;99.90;;;;;;4963950;28;20046;-81
2022/03/04 05:53:54;;;;;;;23.10;11.57;;;5.50;99.90;;;;;;4963950;28;20091;-81
2022/03/04 05:56:22;;;;;;;29.35;12.80;;;5.50;99.90;;;;;;4980116;28;20042;-81
2022/03/04 05:58:50;;;;;;;31.23;11.82;;;5.50;99.90;;;;;;4979979;28;20511;-81
2022/03/04 06:01:17;;;;;;;26.52;12.48;;;5.50;99.90;;;;;;4979860;28;20062;-82
2022/03/04 06:03:44;;;;;;;26.20;11.98;;;5.60;99.90;;;;;;4979840;28;20064;-83
2022/03/04 06:06:11;;;;;;;31.25;11.40;;;5.60;99.90;;;;;;4963648;28;20399;-81
2022/03/04 06:08:39;;;;;;;27.45;12.20;;;5.70;99.90;;;;;;4979780;28;20027;-81
2022/03/04 06:11:10;;;;;;;22.30;12.02;;;5.80;99.90;;;;;;4963619;28;20031;-81
2022/03/04 06:13:38;;;;;;;27.20;11.68;;;5.80;99.90;;;;;;4979720;28;20058;-81
2022/03/04 06:16:06;;;;;;;21.42;12.15;;;5.80;99.90;;;;;;4963592;28;20053;-81
2022/03/04 06:18:34;;;;;;;29.17;11.48;;;5.90;99.90;;;;;;4979592;28;20030;-81
2022/03/04 06:21:01;;;;;;;23.38;11.10;;;5.90;99.90;;;;;;4979706;28;20396;-81
2022/03/04 06:23:28;;;;;;;23.58;10.82;;;5.90;99.90;;;;;;4979574;28;20393;-80
2022/03/04 06:25:55;;;;;;;21.50;10.63;;;5.80;99.90;;;;;;4997236;28;20026;-82
2022/03/04 06:28:24;;;;;;;21.90;10.93;;;5.90;99.90;;;;;;4992201;28;20043;-81
2022/03/04 06:30:53;;;;;;;28.08;12.02;;;6.00;99.90;;;;;;4976090;28;20042;-81
2022/03/04 06:33:33;;;;;;;29.63;13.00;;;6.10;99.90;;;;;;4975887;28;20035;-82
2022/03/04 06:36:07;;;;;;;27.42;11.07;;;6.20;99.90;;;;;;4976248;28;20596;-81
2022/03/04 06:38:41;;;;;;;25.38;11.45;;;6.20;99.90;;;;;;4976150;28;20037;-82
2022/03/04 06:41:10;;;;;;;20.88;9.85;;;6.30;99.90;;;;;;4975961;28;20122;-81
2022/03/04 06:43:37;;;;;;;29.98;11.10;;;6.40;99.90;;;;;;4976072;28;20413;-81
2022/03/04 06:46:04;;;;;;;21.27;9.73;;;6.40;99.90;;;;;;4959994;28;20400;-81
2022/03/04 06:48:32;;;;;;;23.95;11.35;;;6.50;99.90;;;;;;4992043;28;20033;-81
2022/03/04 06:50:59;;;;;;;23.67;10.68;;;6.70;99.90;;;;;;4975862;28;20039;-81
2022/03/04 06:53:26;;;;;;;19.88;9.98;;;6.70;99.90;;;;;;4976650;28;20110;-82
2022/03/04 06:55:53;;;;;;;25.60;10.98;;;6.70;99.90;;;;;;4975658;28;20404;-83
2022/03/04 06:58:20;;;;;;;29.90;10.82;;;6.80;99.90;;;;;;4975364;28;20031;-82
2022/03/04 07:00:47;;;;;;;26.20;11.50;;;7.00;99.90;;;;;;4975449;28;20130;-83
2022/03/04 07:03:14;;;;;;;17.45;9.48;;;7.30;99.90;;;;;;4959365;28;20030;-82
2022/03/04 07:05:41;;;;;;;17.85;8.40;;;7.70;99.90;;;;;;4976767;28;20043;-81
2022/03/04 07:08:10;;;;;;;19.00;7.88;;;8.00;99.90;;;;;;4959320;28;20641;-81
2022/03/04 07:10:37;;;;;;;18.42;7.93;;;8.30;99.90;;;;;;4975363;28;20480;-81
2022/03/04 07:13:04;;;;;;;14.73;7.03;;;8.50;99.90;;;;;;4975384;28;20033;-82
2022/03/04 07:15:31;;;;;;;20.95;7.45;;;8.60;99.90;;;;;;4975390;28;20035;-81
2022/03/04 07:17:57;;;;;;;19.38;7.72;;;8.70;99.90;;;;;;4959171;28;20115;-82
2022/03/04 07:20:23;;;;;;;15.23;7.28;;;8.80;99.90;;;;;;4975265;28;20038;-81
2022/03/04 07:22:49;;;;;;;12.80;6.32;;;8.90;99.90;;;;;;4959240;28;20450;-81
2022/03/04 07:25:16;;;;;;;11.10;5.65;;;9.10;99.90;;;;;;4975622;28;20035;-82
2022/03/04 07:27:42;;;;;;;10.63;4.88;;;9.20;99.90;;;;;;4958778;28;20093;-82
2022/03/04 07:30:15;;;;;;;8.55;4.15;;;9.30;99.90;;;;;;4991302;28;20463;-81
2022/03/04 07:32:42;;;;;;;6.88;3.53;;;9.60;99.90;;;;;;4959357;28;20117;-82
2022/03/04 07:35:10;;;;;;;5.25;2.50;;;9.70;99.90;;;;;;4975217;28;20547;-81
2022/03/04 07:37:37;;;;;;;5.20;3.13;;;9.80;99.90;;;;;;4991196;28;20038;-82
2022/03/04 07:40:05;;;;;;;5.50;2.85;;;9.90;99.90;;;;;;4974908;28;20023;-81
2022/03/04 07:42:33;;;;;;;4.28;2.25;;;10.10;99.90;;;;;;4974719;28;20026;-81
2022/03/04 07:45:01;;;;;;;3.70;2.13;;;10.20;99.90;;;;;;4957884;28;20065;-81
2022/03/04 07:47:28;;;;;;;3.53;2.20;;;10.20;99.90;;;;;;4990735;28;20034;-81
2022/03/04 07:49:55;;;;;;;3.88;2.47;;;10.40;99.90;;;;;;4975005;28;20158;-81
2022/03/04 07:52:22;;;;;;;3.38;2.17;;;10.60;99.90;;;;;;4958474;28;20038;-82
2022/03/04 07:54:48;;;;;;;1.75;1.58;;;10.70;99.90;;;;;;4958545;28;20031;-81
2022/03/04 07:57:14;;;;;;;2.83;1.60;;;10.90;99.90;;;;;;4958633;28;20125;-82
2022/03/04 07:59:41;;;;;;;3.20;1.80;;;11.00;99.90;;;;;;4974524;28;20480;-81
2022/03/04 08:02:07;;;;;;;1.70;1.15;;;11.10;99.90;;;;;;4974415;28;20471;-82
2022/03/04 08:04:33;;;;;;;3.00;1.65;;;11.20;99.90;;;;;;4974599;28;20381;-81
2022/03/04 08:06:59;;;;;;;6.05;2.13;;;11.20;99.90;;;;;;4974328;28;20121;-82
2022/03/04 08:09:25;;;;;;;5.18;1.85;;;11.30;99.90;;;;;;4974326;28;20038;-82
2022/03/04 08:11:53;;;;;;;5.95;2.40;;;11.30;99.90;;;;;;4958136;28;20043;-81
2022/03/04 08:14:19;;;;;;;9.10;1.85;;;11.50;99.90;;;;;;4990309;28;20113;-82
2022/03/04 08:16:47;;;;;;;2.75;2.15;;;11.70;99.90;;;;;;4974099;28;20041;-81
2022/03/04 08:19:13;;;;;;;2.15;1.70;;;12.00;99.90;;;;;;4990287;28;20029;-81
2022/03/04 08:21:39;;;;;;;3.35;2.03;;;12.20;99.90;;;;;;4974092;28;20035;-82
2022/03/04 08:24:06;;;;;;;3.45;1.17;;;12.50;99.90;;;;;;4974116;28;20031;-81
2022/03/04 08:26:33;;;;;;;2.47;1.40;;;12.40;99.90;;;;;;4990077;28;20428;-81
2022/03/04 08:29:00;;;;;;;1.70;1.17;;;12.30;99.90;;;;;;4993147;28;20054;-81
2022/03/04 08:31:28;;;;;;;2.30;1.40;;;12.20;99.90;;;;;;4977264;28;20057;-81
2022/03/04 08:33:54;;;;;;;3.90;1.63;;;12.20;99.90;;;;;;4993380;28;20100;-83
2022/03/04 08:36:20;;;;;;;2.80;1.08;;;12.40;99.90;;;;;;4977039;28;20035;-82
2022/03/04 08:38:47;;;;;;;2.83;1.30;;;12.50;99.90;;;;;;4961036;28;20030;-83
2022/03/04 08:41:14;;;;;;;1.38;0.95;;;12.50;99.90;;;;;;4961107;28;20038;-81
2022/03/04 08:43:40;;;;;;;2.58;1.25;;;12.60;99.90;;;;;;4993215;28;20037;-82
2022/03/04 08:46:07;;;;;;;5.18;1.33;;;12.80;99.90;;;;;;4994374;28;20081;-83
2022/03/04 08:48:34;;;;;;;2.65;1.30;;;12.80;99.90;;;;;;4976988;28;20038;-82
2022/03/04 08:51:00;;;;;;;1.92;1.77;;;12.80;99.90;;;;;;4976913;28;20113;-83
2022/03/04 08:53:27;;;;;;;1.17;0.90;;;12.80;99.90;;;;;;4960899;28;20085;-82
2022/03/04 08:55:55;;;;;;;2.78;1.30;;;12.80;99.90;;;;;;4960737;28;20104;-82
2022/03/04 08:58:21;;;;;;;3.00;1.83;;;12.70;99.90;;;;;;4976688;28;20511;-82
2022/03/04 09:00:47;;;;;;;1.70;1.17;;;12.60;99.90;;;;;;4960683;28;20034;-80
2022/03/04 09:03:14;;;;;;;4.88;1.45;;;12.70;99.90;;;;;;4994165;28;20033;-81
2022/03/04 09:05:40;;;;;;;1.98;1.20;;;12.80;99.90;;;;;;4960729;28;20030;-79
2022/03/04 09:08:06;;;;;;;2.08;1.40;;;12.80;99.90;;;;;;4993821;28;20022;-79
2022/03/04 09:10:32;;;;;;;3.70;1.70;;;12.70;99.90;;;;;;4976564;28;20045;-80
2022/03/04 09:12:58;;;;;;;3.85;1.60;;;12.80;99.90;;;;;;5009501;28;20019;-81
2022/03/04 09:15:25;;;;;;;2.22;1.55;;;12.70;99.90;;;;;;4976679;28;20045;-80
2022/03/04 09:17:51;;;;;;;6.07;1.48;;;12.70;99.90;;;;;;4960409;28;20022;-79
2022/03/04 09:20:19;;;;;;;2.42;1.42;;;12.80;99.90;;;;;;4992522;28;20035;-79
2022/03/04 09:22:47;;;;;;;3.13;1.50;;;12.90;99.90;;;;;;4993947;28;20026;-79
2022/03/04 09:25:14;;;;;;;6.20;1.40;;;12.90;99.90;;;;;;4960326;28;20034;-79
2022/03/04 09:27:44;;;;;;;4.90;1.85;;;12.90;99.90;;;;;;4993630;28;20074;-79
2022/03/04 09:30:12;;;;;;;1.52;1.13;;;13.00;99.90;;;;;;4976398;28;20034;-79
2022/03/04 09:32:39;;;;;;;4.30;1.63;;;12.90;99.90;;;;;;4993907;28;20467;-79
2022/03/04 09:35:07;;;;;;;2.45;1.30;;;12.90;99.90;;;;;;4976544;28;20029;-79
2022/03/04 09:37:34;;;;;;;9.00;1.15;;;13.00;99.90;;;;;;4994046;28;20033;-79
2022/03/04 09:40:01;;;;;;;1.58;1.20;;;13.10;99.90;;;;;;4993832;28;20026;-80
2022/03/04 09:42:27;;;;;;;2.42;2.10;;;13.20;99.90;;;;;;4960277;28;20040;-79
2022/03/04 09:44:53;;;;;;;1.20;1.10;;;13.20;99.90;;;;;;4976396;28;20030;-80
2022/03/04 09:47:21;;;;;;;1.52;1.10;;;13.20;99.90;;;;;;4960027;28;20558;-80
2022/03/04 09:49:50;;;;;;;2.58;1.58;;;13.10;99.90;;;;;;4960107;28;20562;-80
2022/03/04 09:52:16;;;;;;;1.65;1.05;;;13.10;99.90;;;;;;4976261;28;20038;-80
2022/03/04 09:54:47;;;;;;;3.55;1.30;;;13.00;99.90;;;;;;4976444;28;20073;-80
2022/03/04 09:57:13;;;;;;;4.25;1.80;;;13.00;99.90;;;;;;5008716;28;20054;-81
2022/03/04 09:59:39;;;;;;;2.42;1.60;;;12.80;99.90;;;;;;4960192;28;20034;-81
2022/03/04 10:02:05;;;;;;;2.97;1.00;;;13.00;99.90;;;;;;4960136;28;20511;-79
2022/03/04 10:04:33;;;;;;;1.10;1.00;;;13.30;99.90;;;;;;4976177;28;20034;-79
2022/03/04 10:07:16;;;;;;;3.17;1.45;;;13.70;99.90;;;;;;4976453;28;20018;-79
2022/03/04 10:09:49;;;;;;;2.33;1.13;;;13.90;99.90;;;;;;4979774;28;20065;-79
2022/03/04 10:12:18;;;;;;;1.70;1.45;;;13.90;99.90;;;;;;4997304;28;20042;-79
2022/03/04 10:15:04;;;;;;;1.40;1.33;;;13.90;99.90;;;;;;4979660;28;20037;-79
2022/03/04 10:17:35;;;;;;;5.00;1.70;;;13.90;99.90;;;;;;4997182;28;20026;-80
2022/03/04 10:20:12;;;;;;;1.75;1.52;;;14.00;99.90;;;;;;4979817;28;20105;-80
2022/03/04 10:22:47;;;;;;;8.57;1.38;;;14.00;99.90;;;;;;4963591;28;20076;-80
2022/03/04 10:25:20;;;;;;;3.17;1.92;;;13.90;99.90;;;;;;4995751;28;20117;-80
2022/03/04 10:27:47;;;;;;;2.40;1.70;;;13.90;99.90;;;;;;4979328;28;20046;-80
2022/03/04 10:30:15;;;;;;;1.80;1.48;;;14.00;99.90;;;;;;4998966;28;20112;-80
2022/03/04 10:32:42;;;;;;;2.47;1.40;;;14.00;99.90;;;;;;5035978;28;20030;-80
2022/03/04 10:35:10;;;;;;;1.83;1.25;;;13.90;99.90;;;;;;5018185;28;20033;-80
2022/03/04 10:37:56;;;;;;;2.95;1.15;;;14.10;99.90;;;;;;5018050;28;20033;-80
2022/03/04 10:40:45;;;;;;;1.55;1.17;;;14.00;99.90;;;;;;5018076;28;20483;-81
2022/03/04 10:43:13;;;;;;;4.32;1.15;;;14.10;99.90;;;;;;5018107;28;20546;-81
2022/03/04 10:45:41;;;;;;;2.10;1.25;;;14.20;99.90;;;;;;5018158;28;20364;-81
2022/03/04 10:48:18;;;;;;;3.35;1.60;;;14.40;99.90;;;;;;5035677;28;20030;-82
2022/03/04 10:50:53;;;;;;;3.47;1.80;;;14.50;99.90;;;;;;5017865;28;20040;-80
2022/03/04 10:53:23;;;;;;;2.50;1.70;;;14.70;99.90;;;;;;5034596;28;20113;-81
2022/03/04 10:56:02;;;;;;;0.93;0.93;;;14.60;99.90;;;;;;5018224;28;20026;-81
2022/03/04 10:58:34;;;;;;;2.17;1.25;;;14.60;99.90;;;;;;5035630;28;20017;-81
2022/03/04 11:01:08;;;;;;;3.03;1.30;;;14.40;99.90;;;;;;5001603;28;20033;-82
2022/03/04 11:03:35;;;;;;;2.23;1.13;;;14.50;99.90;;;;;;5017914;28;20021;-82
2022/03/04 11:06:04;;;;;;;4.00;1.85;;;14.40;99.90;;;;;;5017869;28;20025;-82
2022/03/04 11:08:31;;;;;;;2.55;1.40;;;14.20;99.90;;;;;;5001369;28;20033;-81
2022/03/04 11:10:58;;;;;;;3.35;2.00;;;14.20;99.90;;;;;;5017779;28;20060;-81
2022/03/04 11:13:25;;;;;;;4.60;1.80;;;14.20;99.90;;;;;;5017752;28;20479;-81
2022/03/04 11:15:52;;;;;;;4.90;2.03;;;14.40;99.90;;;;;;5034239;28;20029;-82
2022/03/04 11:18:21;;;;;;;3.83;1.77;;;14.50;99.90;;;;;;5017184;28;20026;-80
2022/03/04 11:20:50;;;;;;;2.70;1.30;;;14.50;99.90;;;;;;5033586;28;20029;-81
2022/03/04 11:23:23;;;;;;;2.08;1.45;;;14.50;99.90;;;;;;5001170;28;20090;-80
2022/03/04 11:26:01;;;;;;;3.22;1.25;;;14.40;99.90;;;;;;5017547;28;20029;-80
2022/03/04 11:28:44;;;;;;;3.65;1.45;;;14.50;99.90;;;;;;5017187;28;20242;-80
2022/03/04 11:31:13;;;;;;;2.58;1.98;;;14.40;99.90;;;;;;5000923;28;20128;-81
2022/03/04 11:33:46;;;;;;;6.72;3.05;;;14.30;99.90;;;;;;5017365;28;20410;-81
2022/03/04 11:36:18;;;;;;;3.60;1.52;;;14.20;99.90;;;;;;5017070;28;20025;-82
2022/03/04 11:38:47;;;;;;;2.33;1.33;;;14.20;99.90;;;;;;5017364;28;20120;-82
2022/03/04 11:41:34;;;;;;;5.47;1.48;;;13.90;99.90;;;;;;5017157;28;20057;-81
2022/03/04 11:44:12;;;;;;;4.90;2.20;;;13.80;99.90;;;;;;5017068;28;20033;-82
2022/03/04 11:47:05;;;;;;;0.98;0.98;;;13.90;99.90;;;;;;5017079;28;20080;-81
2022/03/04 11:49:44;;;;;;;7.30;1.73;;;14.10;99.90;;;;;;5017033;28;20029;-82
2022/03/04 11:52:25;;;;;;;5.78;2.03;;;14.10;99.90;;;;;;5016942;28;20049;-85
2022/03/04 11:54:52;;;;;;;1.73;1.50;;;14.20;99.90;;;;;;5017266;28;20032;-82
2022/03/04 11:57:22;;;;;;;4.57;1.70;;;14.20;99.90;;;;;;5016826;28;20490;-81
2022/03/04 11:59:56;;;;;;;4.35;1.67;;;14.20;99.90;;;;;;5016838;28;20038;-81
2022/03/04 12:02:38;;;;;;;2.97;1.50;;;14.10;99.90;;;;;;5016899;28;20029;-82
2022/03/04 12:05:21;;;;;;;4.60;1.90;;;13.90;99.90;;;;;;5000264;28;20034;-81
2022/03/04 12:07:56;;;;;;;6.28;1.85;;;13.80;99.90;;;;;;5000313;28;20037;-80
2022/03/04 12:10:36;;;;;;;4.25;1.65;;;13.70;99.90;;;;;;5000284;28;20048;-82
2022/03/04 12:13:09;;;;;;;1.63;1.48;;;13.60;99.90;;;;;;5016786;28;20032;-85
2022/03/04 12:15:42;;;;;;;4.20;1.58;;;13.50;99.90;;;;;;5017594;28;20037;-85
2022/03/04 12:18:25;;;;;;;3.22;1.65;;;13.40;99.90;;;;;;5017097;28;20028;-83
2022/03/04 12:21:13;;;;;;;6.57;1.70;;;13.30;99.90;;;;;;5016568;28;20087;-82
2022/03/04 12:23:43;;;;;;;9.35;1.98;;;13.20;99.90;;;;;;5016627;28;20069;-82
2022/03/04 12:26:22;;;;;;;10.32;3.85;;;13.10;99.90;;;;;;5034055;28;20029;-82
2022/03/04 12:28:53;;;;;;;3.25;2.38;;;12.90;99.90;;;;;;4999871;28;20482;-82
2022/03/04 12:31:23;;;;;;;4.20;2.40;;;12.90;99.90;;;;;;5015812;28;20044;-82
2022/03/04 12:33:54;;;;;;;5.38;2.70;;;12.90;99.90;;;;;;5016858;28;20525;-83
2022/03/04 12:36:23;;;;;;;3.80;2.25;;;12.80;99.90;;;;;;5016261;28;20486;-81
2022/03/04 12:38:52;;;;;;;4.30;2.15;;;12.80;99.90;;;;;;4999796;28;20083;-81
2022/03/04 12:41:24;;;;;;;5.97;1.48;;;12.80;99.90;;;;;;4999879;28;20033;-82
2022/03/04 12:43:58;;;;;;;2.85;2.03;;;12.70;99.90;;;;;;5016036;28;20021;-82
2022/03/04 12:46:27;;;;;;;3.47;1.75;;;12.70;99.90;;;;;;5016087;28;20033;-82
2022/03/04 12:48:54;;;;;;;4.22;1.70;;;12.60;99.90;;;;;;5016041;28;20025;-81
2022/03/04 12:51:29;;;;;;;4.10;2.10;;;12.70;99.90;;;;;;5015847;28;20413;-81